Time;durP1;ratioP1;P1;durP2;ratioP2;P2;SDS_P1;SDS_P2;PMS_P1;PMS_P2;Temp;Humidity;BMP_temperature;BMP_pressure;BME280_temperature;BME280_humidity;BME280_pressure;Samples;Min_cycle;Max_cycle;Signal;HPM_P1;HPM_P2
2022/01/21 00:00:26;;;;;;;11.60;3.57;;;0.10;99.90;;;;;;4967288;28;20437;-56
2022/01/21 00:02:52;;;;;;;18.50;4.20;;;0.10;99.90;;;;;;4968701;28;20514;-56
2022/01/21 00:05:18;;;;;;;6.30;3.27;;;0.10;99.90;;;;;;4963343;28;20214;-56
2022/01/21 00:07:44;;;;;;;11.60;4.13;;;0.00;99.90;;;;;;4963372;28;20462;-54
2022/01/21 00:10:11;;;;;;;10.77;4.27;;;0.00;99.90;;;;;;4964649;28;20882;-61
2022/01/21 00:12:37;;;;;;;8.40;4.20;;;0.00;99.90;;;;;;4965225;28;20440;-57
2022/01/21 00:15:07;;;;;;;13.43;4.30;;;0.00;99.90;;;;;;4964918;28;20975;-58
2022/01/21 00:17:34;;;;;;;14.83;3.83;;;0.10;99.90;;;;;;4965989;28;20459;-57
2022/01/21 00:30:57;;;;;;;11.30;4.10;;;0.10;99.90;;;;;;4968548;28;20435;-55
2022/01/21 00:33:22;;;;;;;3.90;3.30;;;0.10;99.90;;;;;;4967920;28;20420;-57
2022/01/21 00:35:48;;;;;;;11.60;3.60;;;0.10;99.90;;;;;;4966794;28;20266;-54
2022/01/21 00:38:14;;;;;;;10.10;3.97;;;0.10;99.90;;;;;;4967371;28;20203;-57
2022/01/21 00:40:41;;;;;;;8.63;4.10;;;0.10;99.90;;;;;;4967455;28;20180;-56
2022/01/21 00:43:13;;;;;;;;;;;;;;;;;;;;;
2022/01/21 00:45:33;;;;;;;11.30;3.70;;;0.10;99.90;;;;;;4965734;28;20434;-57
2022/01/21 00:47:59;;;;;;;5.07;3.20;;;0.10;99.90;;;;;;4967493;28;20442;-55
2022/01/21 00:50:24;;;;;;;8.80;3.57;;;0.10;99.90;;;;;;4965597;28;20743;-55
2022/01/21 00:52:50;;;;;;;11.53;3.50;;;0.10;99.90;;;;;;4967102;28;20179;-56
2022/01/21 00:55:16;;;;;;;7.50;3.13;;;0.10;99.90;;;;;;4963804;28;20266;-59
2022/01/21 00:57:41;;;;;;;4.20;3.17;;;0.10;99.90;;;;;;4962122;28;20212;-57
2022/01/21 01:00:10;;;;;;;8.40;3.50;;;0.10;99.90;;;;;;4960267;28;20215;-56
2022/01/21 01:02:36;;;;;;;10.53;4.00;;;0.00;99.90;;;;;;4967237;28;20603;-56
2022/01/21 01:05:02;;;;;;;7.13;3.50;;;0.00;99.90;;;;;;4963156;28;20462;-57
2022/01/21 01:07:28;;;;;;;13.37;3.27;;;0.00;99.90;;;;;;4963434;28;20550;-54
2022/01/21 01:09:56;;;;;;;6.57;3.10;;;0.00;99.70;;;;;;4966597;28;20471;-57
2022/01/21 01:12:39;;;;;;;11.83;3.10;;;0.00;98.10;;;;;;4966180;28;20266;-56
2022/01/21 01:20:35;;;;;;;13.00;3.77;;;0.00;99.90;;;;;;4988820;28;20507;-59
2022/01/21 01:23:23;;;;;;;6.10;3.80;;;0.00;99.90;;;;;;4969186;28;21030;-57
2022/01/21 01:28:34;;;;;;;7.70;3.23;;;0.00;99.70;;;;;;4965589;28;20892;-57
2022/01/21 01:31:00;;;;;;;9.23;3.73;;;0.00;99.90;;;;;;4966654;28;20423;-57
2022/01/21 01:33:34;;;;;;;6.87;3.90;;;0.00;99.90;;;;;;4963754;28;20251;-56
2022/01/21 01:36:00;;;;;;;6.80;3.50;;;0.00;99.70;;;;;;4966513;28;20368;-57
2022/01/21 01:40:59;;;;;;;11.13;3.53;;;0.00;98.10;;;;;;4968920;28;20498;-56
2022/01/21 01:51:24;;;;;;;6.90;3.40;;;-0.10;99.30;;;;;;4969730;28;20522;-57
2022/01/21 01:53:58;;;;;;;11.47;4.00;;;-0.10;99.30;;;;;;4968963;28;20431;-56
2022/01/21 01:56:31;;;;;;;8.07;3.80;;;-0.10;99.00;;;;;;4970242;28;20477;-55
2022/01/21 01:58:57;;;;;;;16.50;3.40;;;-0.10;98.90;;;;;;4968137;28;20497;-56
2022/01/21 02:01:22;;;;;;;7.83;3.70;;;-0.10;98.70;;;;;;4970122;28;20994;-56
2022/01/21 02:03:48;;;;;;;6.93;3.23;;;-0.10;98.60;;;;;;4967550;28;20184;-56
2022/01/21 02:06:14;;;;;;;3.33;2.87;;;-0.10;98.60;;;;;;4967312;28;20243;-57
2022/01/21 02:08:41;;;;;;;5.10;3.20;;;-0.10;98.30;;;;;;4968314;28;20271;-56
2022/01/21 02:11:07;;;;;;;7.90;3.30;;;-0.10;97.80;;;;;;4973043;28;20183;-56
2022/01/21 02:13:42;;;;;;;6.93;3.37;;;-0.10;97.30;;;;;;4979496;28;20431;-59
2022/01/21 02:21:42;;;;;;;6.43;3.40;;;-0.10;97.30;;;;;;4971271;28;20449;-57
2022/01/21 02:24:17;;;;;;;3.90;3.03;;;-0.10;97.10;;;;;;4968868;28;20411;-54
2022/01/21 02:26:44;;;;;;;10.43;3.63;;;-0.10;97.40;;;;;;4968862;28;20931;-55
2022/01/21 02:29:11;;;;;;;5.10;3.40;;;-0.10;97.50;;;;;;4970278;28;20518;-57
2022/01/21 02:31:40;;;;;;;7.07;3.40;;;-0.10;97.50;;;;;;4983466;28;20426;-58
2022/01/21 02:34:07;;;;;;;5.53;3.10;;;-0.20;97.30;;;;;;4989651;28;20419;-56
2022/01/21 02:36:33;;;;;;;7.80;3.47;;;-0.20;97.00;;;;;;4991311;28;20431;-62
2022/01/21 02:38:59;;;;;;;10.13;3.20;;;-0.20;96.90;;;;;;4988179;28;20404;-57
2022/01/21 02:41:25;;;;;;;10.30;3.30;;;-0.20;96.90;;;;;;4972336;28;20527;-56
2022/01/21 02:43:51;;;;;;;11.20;3.10;;;-0.20;96.90;;;;;;4967444;28;20283;-61
2022/01/21 02:46:19;;;;;;;7.03;3.37;;;-0.20;96.70;;;;;;4968801;28;20259;-52
2022/01/21 02:48:44;;;;;;;6.87;3.27;;;-0.20;96.30;;;;;;4967917;28;20473;-56
2022/01/21 02:51:12;;;;;;;8.47;3.00;;;-0.30;96.00;;;;;;4969581;28;20475;-55
2022/01/21 02:56:13;;;;;;;10.93;3.07;;;-0.30;95.40;;;;;;4970060;28;20589;-56
2022/01/21 02:58:39;;;;;;;6.17;3.10;;;-0.30;95.70;;;;;;4967487;28;20436;-54
2022/01/21 03:01:06;;;;;;;6.70;2.83;;;-0.40;95.60;;;;;;4966670;28;21006;-54
2022/01/21 03:03:32;;;;;;;5.40;3.03;;;-0.40;95.60;;;;;;4965068;28;20526;-56
2022/01/21 03:05:58;;;;;;;8.10;3.77;;;-0.40;95.80;;;;;;4966269;28;20474;-55
2022/01/21 03:08:24;;;;;;;4.33;2.80;;;-0.40;96.10;;;;;;4966331;28;20486;-56
2022/01/21 03:10:50;;;;;;;10.13;3.57;;;-0.40;96.20;;;;;;4968164;28;20187;-56
2022/01/21 03:13:17;;;;;;;9.63;3.20;;;-0.40;96.30;;;;;;4967273;28;20442;-58
2022/01/21 03:15:43;;;;;;;12.40;3.90;;;-0.40;96.40;;;;;;4967623;28;20519;-54
2022/01/21 03:18:08;;;;;;;7.63;2.80;;;-0.40;96.60;;;;;;4966186;28;20963;-56
2022/01/21 03:20:34;;;;;;;7.67;3.53;;;-0.40;96.90;;;;;;4967814;28;20172;-57
2022/01/21 03:23:01;;;;;;;7.13;3.67;;;-0.40;97.20;;;;;;4966611;28;20246;-53
2022/01/21 03:25:27;;;;;;;6.00;3.17;;;-0.40;97.90;;;;;;4967028;28;20258;-56
2022/01/21 03:27:53;;;;;;;10.53;3.33;;;-0.40;97.60;;;;;;4970241;28;20705;-59
2022/01/21 03:30:19;;;;;;;7.00;3.13;;;-0.40;97.00;;;;;;4976642;28;20500;-54
2022/01/21 03:32:44;;;;;;;4.40;3.10;;;-0.40;97.20;;;;;;4977996;28;20189;-58
2022/01/21 03:35:11;;;;;;;10.57;3.13;;;-0.40;96.70;;;;;;4978797;28;20227;-58
2022/01/21 03:37:36;;;;;;;10.93;3.30;;;-0.40;96.00;;;;;;4975144;28;20214;-58
2022/01/21 03:40:04;;;;;;;5.57;2.63;;;-0.40;94.20;;;;;;4977388;28;20423;-56
2022/01/21 03:42:29;;;;;;;5.47;2.60;;;-0.40;92.80;;;;;;4971045;28;20264;-56
2022/01/21 03:44:55;;;;;;;5.23;2.80;;;-0.50;92.70;;;;;;4973160;28;20472;-56
2022/01/21 03:47:21;;;;;;;8.43;3.33;;;-0.50;91.90;;;;;;4985409;28;20210;-59
2022/01/21 03:49:54;;;;;;;6.87;2.53;;;-0.50;91.10;;;;;;4982108;28;20184;-57
2022/01/21 03:52:20;;;;;;;2.90;2.27;;;-0.50;91.00;;;;;;4966984;28;20188;-56
2022/01/21 03:54:45;;;;;;;4.60;2.60;;;-0.50;91.20;;;;;;4972614;28;20469;-55
2022/01/21 03:57:11;;;;;;;2.80;2.17;;;-0.60;91.50;;;;;;4998203;23;20499;-60
2022/01/21 03:59:37;;;;;;;7.10;2.63;;;-0.60;91.70;;;;;;5023981;28;20788;-61
2022/01/21 04:02:06;;;;;;;5.47;2.73;;;-0.60;91.70;;;;;;5030021;28;20180;-60
2022/01/21 04:04:32;;;;;;;5.30;2.53;;;-0.60;91.70;;;;;;5028724;28;20173;-60
2022/01/21 04:06:57;;;;;;;11.50;2.83;;;-0.60;92.20;;;;;;5029098;28;20534;-61
2022/01/21 04:09:23;;;;;;;9.63;2.33;;;-0.60;92.50;;;;;;5027046;28;20892;-60
2022/01/21 04:11:50;;;;;;;8.00;3.10;;;-0.70;93.00;;;;;;5011464;28;20181;-61
2022/01/21 04:14:16;;;;;;;3.90;2.50;;;-0.70;93.40;;;;;;5026025;28;20218;-60
2022/01/21 04:16:41;;;;;;;5.70;3.00;;;-0.70;94.20;;;;;;5029301;28;20492;-61
2022/01/21 04:19:07;;;;;;;8.50;2.77;;;-0.70;94.80;;;;;;5028887;28;20231;-61
2022/01/21 04:21:32;;;;;;;3.53;2.57;;;-0.70;95.20;;;;;;5011756;28;20197;-61
2022/01/21 04:23:59;;;;;;;2.27;2.13;;;-0.70;95.40;;;;;;5027630;28;20697;-61
2022/01/21 04:26:25;;;;;;;8.80;3.13;;;-0.70;95.30;;;;;;5028862;28;20182;-60
2022/01/21 04:28:51;;;;;;;5.80;2.23;;;-0.70;95.50;;;;;;5020071;28;20467;-61
2022/01/21 04:31:17;;;;;;;13.00;2.90;;;-0.70;96.20;;;;;;5004330;28;20471;-60
2022/01/21 04:33:43;;;;;;;7.60;3.10;;;-0.70;96.70;;;;;;5026393;28;20189;-61
2022/01/21 04:36:08;;;;;;;5.07;3.33;;;-0.70;97.20;;;;;;5024977;28;20611;-61
2022/01/21 04:38:35;;;;;;;9.20;2.80;;;-0.70;97.00;;;;;;5025681;28;20448;-59
2022/01/21 04:41:19;;;;;;;13.97;3.90;;;-0.60;97.20;;;;;;5028564;28;20212;-59
2022/01/21 04:49:13;;;;;;;6.20;3.30;;;-0.60;97.70;;;;;;5025558;28;20439;-60
2022/01/21 04:51:48;;;;;;;7.23;2.93;;;-0.60;97.30;;;;;;5024696;28;20432;-60
2022/01/21 04:54:14;;;;;;;9.13;2.60;;;-0.50;97.50;;;;;;5024948;28;20185;-59
2022/01/21 04:56:39;;;;;;;8.50;2.90;;;-0.60;96.70;;;;;;5020310;28;20441;-60
2022/01/21 04:59:05;;;;;;;14.83;3.10;;;-0.60;94.70;;;;;;5024015;28;20173;-58
2022/01/21 05:01:31;;;;;;;9.80;3.63;;;-0.50;94.00;;;;;;5023961;28;20250;-60
2022/01/21 05:03:56;;;;;;;4.37;2.70;;;-0.50;92.70;;;;;;5023353;28;20640;-61
2022/01/21 05:06:22;;;;;;;5.33;2.30;;;-0.50;91.80;;;;;;5023132;28;20181;-61
2022/01/21 05:08:53;;;;;;;6.90;2.50;;;-0.40;91.90;;;;;;5003052;28;20210;-61
2022/01/21 05:11:20;;;;;;;5.53;2.73;;;-0.40;92.50;;;;;;5023435;28;20182;-58
2022/01/21 05:13:55;;;;;;;8.33;2.77;;;-0.40;92.20;;;;;;5024220;28;20466;-59
2022/01/21 05:18:49;;;;;;;6.33;3.20;;;-0.40;91.80;;;;;;5029105;28;20501;-61
2022/01/21 05:21:15;;;;;;;7.83;2.80;;;-0.40;92.30;;;;;;5032551;28;20507;-61
2022/01/21 05:23:41;;;;;;;7.23;3.03;;;-0.30;92.80;;;;;;5031164;28;20175;-61
2022/01/21 05:26:06;;;;;;;11.13;3.30;;;-0.30;93.00;;;;;;5012298;28;20270;-61
2022/01/21 05:28:32;;;;;;;9.30;3.50;;;-0.40;94.00;;;;;;5030208;28;20261;-61
2022/01/21 05:30:57;;;;;;;5.43;3.60;;;-0.40;94.60;;;;;;5028206;28;20742;-62
2022/01/21 05:33:23;;;;;;;7.53;4.40;;;-0.40;95.40;;;;;;5032029;28;20203;-61
2022/01/21 05:35:49;;;;;;;8.83;4.20;;;-0.40;96.60;;;;;;5025659;28;20248;-60
2022/01/21 05:38:14;;;;;;;12.50;4.43;;;-0.40;97.80;;;;;;5021767;28;20229;-60
2022/01/21 05:40:42;;;;;;;9.63;3.87;;;-0.30;98.40;;;;;;5020059;28;20208;-61
2022/01/21 05:43:08;;;;;;;8.93;4.17;;;-0.40;98.60;;;;;;5026727;28;20178;-62
2022/01/21 05:48:18;;;;;;;9.80;3.87;;;-0.40;99.60;;;;;;5021316;28;20663;-61
2022/01/21 05:50:44;;;;;;;19.70;4.17;;;-0.40;99.90;;;;;;5007410;28;20424;-61
2022/01/21 05:53:11;;;;;;;7.90;3.80;;;-0.40;99.60;;;;;;5031646;28;20826;-61
2022/01/21 05:55:41;;;;;;;11.50;4.40;;;-0.40;99.70;;;;;;5027847;28;20464;-61
2022/01/21 05:58:08;;;;;;;11.17;3.70;;;-0.40;99.90;;;;;;5004127;28;20471;-62
2022/01/21 06:00:35;;;;;;;6.27;3.90;;;-0.40;99.90;;;;;;5026520;28;20684;-61
2022/01/21 06:03:02;;;;;;;7.40;3.70;;;-0.40;99.90;;;;;;5029726;28;20439;-58
2022/01/21 06:05:31;;;;;;;10.93;3.93;;;-0.40;99.90;;;;;;5033928;28;20467;-61
2022/01/21 06:07:56;;;;;;;9.03;3.90;;;-0.40;99.90;;;;;;5026419;28;20471;-60
2022/01/21 06:10:22;;;;;;;6.60;4.07;;;-0.40;99.90;;;;;;5028822;28;20458;-60
2022/01/21 06:12:48;;;;;;;11.17;3.90;;;-0.40;99.90;;;;;;5030012;28;20677;-58
2022/01/21 06:15:13;;;;;;;13.60;4.17;;;-0.40;99.90;;;;;;5023659;28;20205;-62
2022/01/21 06:17:39;;;;;;;11.80;3.73;;;-0.50;99.90;;;;;;5031213;28;20190;-62
2022/01/21 06:20:05;;;;;;;10.97;4.27;;;-0.50;99.70;;;;;;5028922;28;20165;-60
2022/01/21 06:22:32;;;;;;;7.23;4.13;;;-0.50;99.50;;;;;;5027734;28;20169;-61
2022/01/21 06:24:58;;;;;;;12.10;3.93;;;-0.60;99.90;;;;;;5026263;28;20424;-61
2022/01/21 06:27:27;;;;;;;12.23;4.40;;;-0.60;99.90;;;;;;5029881;28;20510;-61
2022/01/21 06:29:53;;;;;;;9.53;3.80;;;-0.60;99.90;;;;;;5032136;28;20197;-61
2022/01/21 06:32:19;;;;;;;5.77;3.87;;;-0.60;99.90;;;;;;5010111;28;20443;-61
2022/01/21 06:34:45;;;;;;;6.70;4.23;;;-0.70;99.90;;;;;;5031507;28;21185;-61
2022/01/21 06:37:10;;;;;;;9.43;4.43;;;-0.70;99.90;;;;;;5031035;28;20189;-61
2022/01/21 06:39:36;;;;;;;7.20;3.60;;;-0.70;99.90;;;;;;5021333;28;20637;-61
2022/01/21 06:42:02;;;;;;;7.00;3.90;;;-0.70;99.90;;;;;;5029605;28;20223;-60
2022/01/21 06:44:28;;;;;;;8.00;4.20;;;-0.70;99.90;;;;;;5031086;28;20656;-61
2022/01/21 06:46:53;;;;;;;8.07;3.97;;;-0.70;99.90;;;;;;5031408;28;20452;-61
2022/01/21 06:49:19;;;;;;;9.63;4.50;;;-0.70;99.90;;;;;;5029218;28;20220;-61
2022/01/21 06:51:45;;;;;;;5.40;3.60;;;-0.70;99.90;;;;;;5030743;28;20269;-61
2022/01/21 06:54:11;;;;;;;12.07;4.53;;;-0.80;99.90;;;;;;5028855;28;20199;-60
2022/01/21 06:56:36;;;;;;;9.70;4.50;;;-0.80;99.90;;;;;;5028744;28;20188;-61
2022/01/21 06:59:02;;;;;;;8.33;3.60;;;-0.80;99.90;;;;;;5030461;28;20424;-60
2022/01/21 07:01:28;;;;;;;7.17;4.10;;;-0.80;99.90;;;;;;5012120;28;20186;-61
2022/01/21 07:03:54;;;;;;;12.60;4.00;;;-0.80;99.90;;;;;;5030791;28;20497;-60
2022/01/21 07:06:20;;;;;;;12.13;4.03;;;-0.90;99.90;;;;;;5029362;28;20432;-62
2022/01/21 07:08:45;;;;;;;10.43;4.37;;;-0.90;99.90;;;;;;5030120;28;20207;-61
2022/01/21 07:11:11;;;;;;;17.23;5.23;;;-0.90;99.70;;;;;;5019056;28;20182;-61
2022/01/21 07:13:37;;;;;;;8.80;4.30;;;-0.90;99.80;;;;;;5027554;28;20246;-58
2022/01/21 07:16:03;;;;;;;9.97;3.83;;;-0.90;99.60;;;;;;5025373;28;20233;-59
2022/01/21 07:18:28;;;;;;;9.10;4.60;;;-1.00;99.20;;;;;;5028694;28;20209;-60
2022/01/21 07:20:55;;;;;;;10.57;4.10;;;-1.00;99.70;;;;;;5031124;28;20204;-59
2022/01/21 07:23:21;;;;;;;12.50;4.03;;;-1.00;99.90;;;;;;5012321;28;20177;-59
2022/01/21 07:25:46;;;;;;;9.67;3.50;;;-1.00;99.90;;;;;;5029099;28;20935;-60
2022/01/21 07:28:12;;;;;;;16.67;5.43;;;-1.00;99.90;;;;;;5029900;28;20205;-60
2022/01/21 07:30:38;;;;;;;8.77;4.17;;;-1.00;99.90;;;;;;5026915;28;20224;-60
2022/01/21 07:33:03;;;;;;;8.60;3.83;;;-1.00;99.90;;;;;;5029310;28;20179;-59
2022/01/21 07:35:29;;;;;;;13.13;4.80;;;-1.00;99.40;;;;;;5030616;28;20204;-60
2022/01/21 07:37:55;;;;;;;7.33;4.23;;;-1.10;99.90;;;;;;5029151;28;20198;-59
2022/01/21 07:40:20;;;;;;;6.50;4.17;;;-1.10;99.60;;;;;;5029947;28;20169;-59
2022/01/21 07:42:46;;;;;;;10.97;5.30;;;-1.10;99.50;;;;;;5029738;28;20651;-59
2022/01/21 07:45:12;;;;;;;14.03;6.50;;;-1.10;99.70;;;;;;5027309;28;20268;-58
2022/01/21 07:47:37;;;;;;;12.67;6.17;;;-1.10;99.70;;;;;;5028021;28;20209;-60
2022/01/21 07:50:03;;;;;;;10.90;5.60;;;-1.10;99.90;;;;;;5027582;28;20204;-60
2022/01/21 07:52:29;;;;;;;9.30;4.63;;;-1.10;99.60;;;;;;5029122;28;20192;-61
2022/01/21 07:54:55;;;;;;;7.97;4.43;;;-1.10;99.60;;;;;;5029973;28;20459;-60
2022/01/21 07:57:20;;;;;;;15.37;4.80;;;-1.10;99.90;;;;;;5028590;28;20225;-60
2022/01/21 07:59:46;;;;;;;9.70;4.43;;;-1.00;99.90;;;;;;5029505;28;20173;-59
2022/01/21 08:02:12;;;;;;;8.77;5.43;;;-1.00;99.90;;;;;;5029735;28;20181;-60
2022/01/21 08:04:37;;;;;;;8.70;5.20;;;-1.00;99.90;;;;;;5028647;28;20226;-60
2022/01/21 08:07:03;;;;;;;14.57;5.07;;;-1.00;99.90;;;;;;5026918;28;20300;-60
2022/01/21 08:09:29;;;;;;;9.17;5.00;;;-0.90;99.80;;;;;;5028537;28;20181;-60
2022/01/21 08:11:55;;;;;;;9.57;5.10;;;-0.90;99.50;;;;;;5027437;28;20851;-60
2022/01/21 08:14:22;;;;;;;10.77;4.13;;;-0.80;99.00;;;;;;5027512;28;20193;-61
2022/01/21 08:16:48;;;;;;;8.60;4.17;;;-0.80;98.20;;;;;;5028475;28;20511;-60
2022/01/21 08:19:14;;;;;;;7.77;4.40;;;-0.80;97.90;;;;;;5025013;28;20519;-60
2022/01/21 08:21:41;;;;;;;12.47;4.50;;;-0.70;97.30;;;;;;5029899;28;20502;-59
2022/01/21 08:24:07;;;;;;;11.10;4.70;;;-0.70;96.00;;;;;;5010282;28;20580;-60
2022/01/21 08:26:34;;;;;;;9.00;3.93;;;-0.70;95.50;;;;;;5025503;28;20443;-60
2022/01/21 08:29:00;;;;;;;12.67;4.67;;;-0.70;95.40;;;;;;5029294;28;20885;-60
2022/01/21 08:31:26;;;;;;;11.27;4.50;;;-0.70;95.80;;;;;;5022408;28;21042;-60
2022/01/21 08:33:52;;;;;;;16.87;4.97;;;-0.70;96.40;;;;;;5028932;28;20178;-60
2022/01/21 08:36:19;;;;;;;15.97;4.67;;;-0.60;96.50;;;;;;5027113;28;20467;-60
2022/01/21 08:38:44;;;;;;;10.70;4.37;;;-0.60;96.20;;;;;;5025246;28;20452;-61
2022/01/21 08:41:10;;;;;;;10.00;4.10;;;-0.60;95.90;;;;;;5024373;28;20838;-60
2022/01/21 08:43:37;;;;;;;9.70;3.43;;;-0.50;95.30;;;;;;5026508;28;20997;-60
2022/01/21 08:46:03;;;;;;;13.20;4.70;;;-0.50;94.30;;;;;;5026544;28;20173;-61
2022/01/21 08:48:29;;;;;;;8.93;3.67;;;-0.50;92.50;;;;;;5028541;28;21125;-61
2022/01/21 08:50:56;;;;;;;11.80;4.17;;;-0.40;92.00;;;;;;5030078;28;20519;-61
2022/01/21 08:53:38;;;;;;;8.30;3.40;;;-0.50;91.70;;;;;;5031360;28;20779;-63
2022/01/21 08:56:11;;;;;;;9.57;3.70;;;-0.40;91.90;;;;;;5031305;28;21224;-62
2022/01/21 08:58:37;;;;;;;9.27;3.80;;;-0.40;91.00;;;;;;5033181;28;20474;-62
2022/01/21 09:01:03;;;;;;;7.47;3.50;;;-0.40;89.90;;;;;;5013976;28;20448;-62
2022/01/21 09:03:29;;;;;;;8.43;3.57;;;-0.30;87.60;;;;;;5031474;28;20475;-62
2022/01/21 09:05:55;;;;;;;11.17;3.10;;;-0.30;85.60;;;;;;5032213;28;20432;-62
2022/01/21 09:08:23;;;;;;;12.80;3.00;;;-0.30;85.50;;;;;;5031701;28;20480;-61
2022/01/21 09:10:53;;;;;;;14.17;3.50;;;-0.20;86.20;;;;;;5032382;28;20178;-60
2022/01/21 09:13:21;;;;;;;7.53;3.23;;;-0.10;84.80;;;;;;5030243;28;20443;-61
2022/01/21 09:15:47;;;;;;;10.00;3.20;;;-0.10;83.20;;;;;;5032079;28;20463;-60
2022/01/21 09:18:18;;;;;;;9.43;3.00;;;0.00;77.20;;;;;;5031897;28;20838;-61
2022/01/21 09:20:44;;;;;;;7.87;3.57;;;0.10;77.60;;;;;;5027018;28;20460;-61
2022/01/21 09:23:10;;;;;;;5.53;2.63;;;0.20;76.50;;;;;;5029230;28;20427;-61
2022/01/21 09:25:36;;;;;;;10.43;3.60;;;0.30;73.10;;;;;;5028571;28;20438;-61
2022/01/21 09:28:03;;;;;;;3.20;2.83;;;0.40;71.90;;;;;;5028536;28;20223;-60
2022/01/21 09:30:29;;;;;;;6.17;2.80;;;0.50;69.30;;;;;;5030135;28;20424;-58
2022/01/21 09:32:56;;;;;;;5.70;2.10;;;0.60;66.80;;;;;;5012878;28;20454;-60
2022/01/21 09:35:21;;;;;;;6.80;2.40;;;0.70;64.70;;;;;;5014695;28;20455;-59
2022/01/21 09:37:47;;;;;;;5.33;1.83;;;0.80;63.00;;;;;;5032473;28;20589;-61
2022/01/21 09:40:13;;;;;;;6.30;2.57;;;0.90;62.60;;;;;;5031442;28;20170;-60
2022/01/21 09:42:39;;;;;;;2.93;2.23;;;0.90;60.70;;;;;;5030641;28;20188;-60
2022/01/21 09:45:11;;;;;;;5.60;2.47;;;1.00;60.80;;;;;;5031188;28;20439;-59
2022/01/21 09:47:49;;;;;;;7.27;3.00;;;1.10;61.00;;;;;;5007565;28;20197;-60
2022/01/21 09:50:18;;;;;;;5.37;2.67;;;1.20;61.20;;;;;;5025939;28;21030;-61
2022/01/21 09:52:49;;;;;;;4.10;2.90;;;1.30;62.20;;;;;;5003873;28;20429;-61
2022/01/21 09:55:17;;;;;;;10.40;3.10;;;1.40;62.00;;;;;;5028055;28;20457;-61
2022/01/21 09:57:46;;;;;;;5.60;2.70;;;1.40;62.60;;;;;;5031701;28;20464;-60
2022/01/21 10:00:12;;;;;;;6.47;2.40;;;1.50;62.00;;;;;;5031682;28;20413;-60
2022/01/21 10:02:40;;;;;;;8.63;2.93;;;1.40;60.90;;;;;;5030784;28;20459;-60
2022/01/21 10:05:07;;;;;;;4.33;3.03;;;1.40;61.80;;;;;;5027329;28;20870;-60
2022/01/21 10:07:35;;;;;;;10.00;3.10;;;1.30;62.60;;;;;;5029989;28;20820;-61
2022/01/21 10:10:07;;;;;;;7.03;2.87;;;1.40;62.70;;;;;;5010679;28;20448;-61
2022/01/21 10:12:35;;;;;;;4.23;2.93;;;1.50;62.90;;;;;;5029916;28;20795;-61
2022/01/21 10:15:02;;;;;;;6.60;3.10;;;1.60;61.40;;;;;;5028653;28;20884;-60
2022/01/21 10:17:28;;;;;;;13.37;3.20;;;1.70;61.90;;;;;;5030849;28;20517;-61
2022/01/21 10:19:53;;;;;;;10.57;3.23;;;1.90;60.90;;;;;;5029887;28;20447;-60
2022/01/21 10:22:23;;;;;;;11.30;3.07;;;2.00;61.30;;;;;;5013317;28;20171;-60
2022/01/21 10:24:59;;;;;;;9.23;3.30;;;2.10;61.70;;;;;;5007340;28;20192;-60
2022/01/21 10:27:30;;;;;;;7.03;3.10;;;2.20;61.20;;;;;;5026055;28;20527;-60
2022/01/21 10:29:57;;;;;;;7.00;3.43;;;2.40;60.30;;;;;;5023581;28;20425;-61
2022/01/21 10:32:35;;;;;;;12.50;3.20;;;2.50;60.50;;;;;;5028288;28;20426;-60
2022/01/21 10:35:02;;;;;;;4.63;2.83;;;2.60;60.00;;;;;;5009749;28;20457;-64
2022/01/21 10:37:33;;;;;;;5.53;3.47;;;2.60;60.70;;;;;;5022282;28;20489;-60
2022/01/21 10:40:09;;;;;;;10.70;3.50;;;2.80;60.00;;;;;;5028263;28;20430;-60
2022/01/21 10:42:35;;;;;;;10.43;3.67;;;2.90;59.70;;;;;;5027556;28;20441;-61
2022/01/21 10:45:02;;;;;;;7.00;3.57;;;3.00;59.40;;;;;;5032453;28;20436;-60
2022/01/21 10:47:31;;;;;;;8.77;3.17;;;3.10;59.60;;;;;;5024768;28;20529;-61
2022/01/21 10:50:15;;;;;;;4.63;2.73;;;3.20;58.80;;;;;;5029046;28;20467;-61
2022/01/21 10:52:59;;;;;;;4.73;2.60;;;3.20;57.40;;;;;;5025785;28;20431;-60
2022/01/21 10:55:37;;;;;;;14.00;3.17;;;3.30;57.60;;;;;;5028769;28;20492;-61
2022/01/21 10:58:11;;;;;;;6.60;2.60;;;3.40;57.60;;;;;;5028709;28;20534;-60
2022/01/21 11:00:57;;;;;;;5.50;2.47;;;3.50;57.90;;;;;;5025275;28;20425;-60
2022/01/21 11:03:23;;;;;;;13.03;2.83;;;3.70;57.20;;;;;;5028855;28;20950;-61
2022/01/21 11:05:50;;;;;;;9.13;2.53;;;3.70;56.00;;;;;;5030382;28;20430;-60
2022/01/21 11:08:17;;;;;;;4.70;2.80;;;3.70;55.60;;;;;;5030460;28;20514;-60
2022/01/21 11:10:43;;;;;;;5.80;2.57;;;3.50;55.30;;;;;;5028980;28;20444;-60
2022/01/21 11:13:11;;;;;;;6.73;2.50;;;3.30;55.10;;;;;;5030095;28;20425;-60
2022/01/21 11:15:41;;;;;;;6.17;2.43;;;3.20;54.90;;;;;;5026056;28;20270;-61
2022/01/21 11:18:10;;;;;;;8.43;2.47;;;3.20;55.40;;;;;;5025944;28;20499;-61
2022/01/21 11:20:39;;;;;;;6.93;3.23;;;3.30;55.20;;;;;;5027481;28;20446;-61
2022/01/21 11:23:06;;;;;;;4.03;2.70;;;3.50;56.40;;;;;;5030137;28;20448;-60
2022/01/21 11:25:41;;;;;;;9.60;3.00;;;3.60;56.20;;;;;;5010117;28;20442;-61
2022/01/21 11:28:08;;;;;;;8.33;2.60;;;3.40;55.30;;;;;;5010545;28;20453;-59
2022/01/21 11:30:34;;;;;;;5.33;1.83;;;3.10;55.30;;;;;;5026525;28;20484;-61
2022/01/21 11:32:59;;;;;;;11.90;2.23;;;2.80;55.50;;;;;;5027787;28;20470;-61
2022/01/21 11:35:27;;;;;;;4.93;2.20;;;2.60;55.60;;;;;;5034112;28;20497;-60
2022/01/21 11:37:54;;;;;;;11.87;2.77;;;2.30;56.30;;;;;;5028354;28;20202;-61
2022/01/21 11:40:21;;;;;;;6.63;2.67;;;2.20;56.90;;;;;;5028988;28;20499;-60
2022/01/21 11:42:49;;;;;;;8.00;2.50;;;2.10;56.80;;;;;;5026483;28;20440;-61
2022/01/21 11:48:49;;;;;;;5.23;2.40;;;2.10;57.30;;;;;;5030334;28;20469;-61
2022/01/21 11:50:53;;;;;;;5.30;2.47;;;2.10;57.30;;;;;;5029028;28;20410;-61
2022/01/21 11:53:45;;;;;;;4.93;1.90;;;2.20;57.20;;;;;;5012387;28;20445;-60
2022/01/21 11:56:39;;;;;;;4.87;2.33;;;2.40;56.40;;;;;;5016018;28;20535;-60
2022/01/21 11:59:31;;;;;;;8.43;2.33;;;2.50;55.70;;;;;;5002902;28;20937;-61
2022/01/21 12:02:18;;;;;;;7.27;2.67;;;2.60;55.00;;;;;;5030150;28;20405;-61
2022/01/21 12:04:50;;;;;;;3.10;2.10;;;2.70;55.30;;;;;;5029029;28;20437;-60
2022/01/21 12:07:37;;;;;;;7.53;2.20;;;2.70;54.80;;;;;;5012722;28;20804;-61
2022/01/21 12:10:29;;;;;;;6.67;2.30;;;2.60;54.80;;;;;;5010004;28;20958;-61
2022/01/21 12:12:58;;;;;;;5.43;2.43;;;2.50;55.30;;;;;;5029598;28;20533;-61
2022/01/21 12:15:31;;;;;;;7.30;2.40;;;2.50;55.60;;;;;;5029337;28;20458;-60
2022/01/21 12:20:49;;;;;;;6.13;2.33;;;2.50;55.70;;;;;;5016092;28;20501;-61
2022/01/21 12:23:16;;;;;;;12.20;2.87;;;2.50;55.30;;;;;;5027634;28;20427;-61
2022/01/21 12:26:19;;;;;;;6.73;1.90;;;2.70;55.20;;;;;;5031094;28;20422;-61
2022/01/21 12:28:57;;;;;;;8.53;2.07;;;2.80;55.20;;;;;;5029852;28;20531;-60
2022/01/21 12:31:24;;;;;;;3.50;2.27;;;2.70;54.30;;;;;;5029241;28;20845;-59
2022/01/21 12:34:01;;;;;;;5.80;2.30;;;2.60;54.70;;;;;;5030546;28;20418;-61
2022/01/21 12:36:31;;;;;;;5.53;1.60;;;2.40;53.30;;;;;;5027736;28;20451;-60
2022/01/21 12:41:23;;;;;;;4.23;1.50;;;2.30;52.30;;;;;;5029299;28;20442;-61
2022/01/21 12:44:00;;;;;;;3.87;2.10;;;2.30;52.90;;;;;;5029178;28;21040;-61
2022/01/21 12:46:25;;;;;;;3.93;1.60;;;2.30;52.90;;;;;;5029488;28;20174;-59
2022/01/21 12:48:52;;;;;;;4.83;1.67;;;2.40;53.10;;;;;;5028796;28;21034;-60
2022/01/21 12:51:33;;;;;;;4.53;1.83;;;2.40;52.40;;;;;;5029690;28;20192;-60
2022/01/21 12:56:58;;;;;;;5.63;1.67;;;2.30;51.50;;;;;;5020200;28;21025;-61
2022/01/21 12:59:26;;;;;;;5.90;1.73;;;2.40;51.80;;;;;;5029030;28;20992;-62
2022/01/21 13:01:53;;;;;;;2.93;1.87;;;2.40;51.20;;;;;;5029092;28;20525;-61
2022/01/21 13:05:00;;;;;;;3.70;1.87;;;2.40;51.00;;;;;;5029244;28;20434;-60
2022/01/21 13:07:47;;;;;;;3.27;1.87;;;2.40;51.10;;;;;;5029224;28;20434;-60
2022/01/21 13:10:22;;;;;;;2.90;1.83;;;2.40;50.80;;;;;;5027843;28;20481;-61
2022/01/21 13:15:55;;;;;;;6.43;2.00;;;2.30;52.00;;;;;;5024590;28;20453;-61
2022/01/21 13:18:31;;;;;;;16.17;3.53;;;2.20;52.90;;;;;;5016416;28;20462;-61
2022/01/21 13:21:04;;;;;;;4.77;1.83;;;2.10;52.80;;;;;;5008970;28;20407;-61
2022/01/21 13:23:37;;;;;;;4.00;2.57;;;2.00;53.00;;;;;;5012684;28;20966;-58
2022/01/21 13:26:25;;;;;;;4.50;2.30;;;1.90;53.20;;;;;;5014190;28;20443;-61
2022/01/21 13:29:07;;;;;;;5.23;2.67;;;1.80;53.20;;;;;;5012448;28;20433;-63
2022/01/21 13:31:51;;;;;;;5.70;3.30;;;1.70;53.60;;;;;;5019588;28;20425;-62
2022/01/21 13:34:31;;;;;;;7.23;2.43;;;1.70;53.60;;;;;;5019012;28;20805;-62
2022/01/21 13:37:02;;;;;;;6.53;2.40;;;1.70;53.20;;;;;;5021729;28;20514;-62
2022/01/21 13:39:35;;;;;;;4.17;1.90;;;1.80;53.50;;;;;;5022529;28;20480;-63
2022/01/21 13:42:27;;;;;;;8.80;2.50;;;1.90;53.40;;;;;;5024860;28;20463;-63
2022/01/21 13:44:55;;;;;;;5.47;1.90;;;2.00;53.60;;;;;;5017857;28;20457;-62
2022/01/21 13:47:31;;;;;;;3.93;2.10;;;2.00;53.00;;;;;;5023080;28;20552;-62
2022/01/21 13:50:04;;;;;;;3.33;1.90;;;2.10;53.00;;;;;;5019064;28;20861;-63
2022/01/21 13:52:39;;;;;;;7.33;2.73;;;2.10;53.30;;;;;;5021962;28;20504;-61
2022/01/21 13:55:06;;;;;;;4.07;1.90;;;2.10;53.20;;;;;;5020063;28;20469;-62
2022/01/21 13:57:32;;;;;;;8.70;2.77;;;2.20;53.00;;;;;;5022444;28;20476;-62
2022/01/21 13:59:58;;;;;;;4.37;2.27;;;2.20;53.30;;;;;;5024150;28;20449;-61